Time;durP1;ratioP1;P1;durP2;ratioP2;P2;SDS_P1;SDS_P2;PMS_P1;PMS_P2;Temp;Humidity;BMP_temperature;BMP_pressure;BME280_temperature;BME280_humidity;BME280_pressure;Samples;Min_cycle;Max_cycle;Signal;HPM_P1;HPM_P2
2022/08/26 00:01:32;;;;;;;;;29.00;28.33;;;;;23.26;85.67;100955.23;111070;1258;16758;-48
2022/08/26 00:04:00;;;;;;;;;31.50;30.50;;;;;23.30;85.40;100949.96;110981;1257;14863;-47
2022/08/26 00:06:27;;;;;;;;;36.00;33.33;;;;;23.33;85.16;100952.31;111006;1258;14851;-49
2022/08/26 00:08:54;;;;;;;;;30.00;28.00;;;;;23.21;85.30;100942.59;111032;1258;15430;-49
2022/08/26 00:11:22;;;;;;;;;34.00;31.00;;;;;23.16;85.68;100948.59;111033;1258;15775;-48
2022/08/26 00:13:49;;;;;;;;;32.33;28.33;;;;;23.16;85.66;100945.64;111062;1258;13109;-46
2022/08/26 00:16:17;;;;;;;;;34.67;29.00;;;;;23.12;85.60;100939.52;111014;1257;15374;-47
2022/08/26 00:18:44;;;;;;;;;30.00;27.00;;;;;23.22;85.48;100940.20;111017;1257;15023;-47
2022/08/26 00:21:11;;;;;;;;;35.00;34.67;;;;;23.31;84.78;100942.52;111017;1257;15328;-47
2022/08/26 00:23:39;;;;;;;;;38.00;35.67;;;;;23.27;84.68;100937.77;111026;1257;15805;-48
2022/08/26 00:26:06;;;;;;;;;36.33;31.67;;;;;23.12;84.89;100935.01;111069;1259;15691;-48
2022/08/26 00:28:34;;;;;;;;;34.67;31.67;;;;;23.08;85.37;100938.03;111077;1258;18066;-48
2022/08/26 00:31:01;;;;;;;;;37.00;34.67;;;;;23.08;85.32;100934.66;110995;1257;15422;-49
2022/08/26 00:33:28;;;;;;;;;36.67;32.33;;;;;23.08;85.31;100929.50;110996;1258;15357;-48
2022/08/26 00:35:56;;;;;;;;;32.00;29.67;;;;;23.06;85.33;100927.05;111003;1257;15673;-49
2022/08/26 00:38:23;;;;;;;;;31.00;30.67;;;;;23.03;85.43;100924.33;111033;1258;14967;-46
2022/08/26 00:40:51;;;;;;;;;32.67;31.00;;;;;23.01;85.45;100929.85;111078;1258;13215;-48
2022/08/26 00:43:18;;;;;;;;;30.33;27.67;;;;;22.98;85.43;100927.11;110996;1257;15453;-48
2022/08/26 00:45:46;;;;;;;;;31.67;28.33;;;;;22.92;85.65;100930.17;111034;1258;14662;-48
2022/08/26 00:48:13;;;;;;;;;32.00;29.67;;;;;22.87;85.90;100929.48;110997;1258;15389;-46
2022/08/26 00:50:40;;;;;;;;;31.50;31.00;;;;;22.80;86.15;100925.44;110997;1258;15208;-48
2022/08/26 00:53:20;;;;;;;;;31.33;28.33;;;;;22.86;86.14;100928.85;111032;1258;15343;-48
2022/08/26 00:55:47;;;;;;;;;30.00;26.67;;;;;22.96;85.57;100925.00;111061;1258;13137;-48
2022/08/26 00:58:15;;;;;;;;;34.67;30.67;;;;;23.00;85.37;100922.27;111041;1257;13605;-49
2022/08/26 01:00:42;;;;;;;;;35.00;31.00;;;;;23.06;84.89;100920.80;110956;1259;15104;-47
2022/08/26 01:03:10;;;;;;;;;33.67;30.00;;;;;22.98;84.92;100923.98;111011;1259;13876;-46
2022/08/26 01:05:37;;;;;;;;;34.00;31.50;;;;;22.87;85.34;100923.10;111048;1257;14573;-44
2022/08/26 01:08:04;;;;;;;;;33.50;29.50;;;;;22.85;85.49;100923.35;111036;1259;14911;-48
2022/08/26 01:10:32;;;;;;;;;34.00;31.00;;;;;22.94;85.31;100922.33;111040;1257;13209;-48
2022/08/26 01:12:59;;;;;;;;;30.33;28.33;;;;;22.94;84.90;100912.86;111030;1258;14250;-47
2022/08/26 01:15:27;;;;;;;;;35.33;32.33;;;;;22.97;84.76;100919.52;111029;1258;15324;-47
2022/08/26 01:17:54;;;;;;;;;33.00;31.33;;;;;22.89;84.90;100917.12;111018;1258;14696;-48
2022/08/26 01:20:22;;;;;;;;;39.33;31.67;;;;;22.77;85.16;100914.30;110963;1258;15295;-46
2022/08/26 01:22:49;;;;;;;;;32.50;31.00;;;;;22.85;85.13;100914.23;111065;1259;12993;-46
2022/08/26 01:25:16;;;;;;;;;31.67;26.67;;;;;22.87;84.86;100908.92;111053;1257;14906;-46
2022/08/26 01:27:45;;;;;;;;;31.00;29.00;;;;;22.78;85.10;100914.98;111023;1258;15007;-48
2022/08/26 01:30:12;;;;;;;;;35.33;31.67;;;;;22.72;85.30;100918.05;111067;1258;14935;-48
2022/08/26 01:32:40;;;;;;;;;30.67;29.00;;;;;22.73;85.30;100918.48;111011;1257;15288;-48
2022/08/26 01:35:07;;;;;;;;;31.00;29.67;;;;;22.72;85.10;100920.09;111034;1258;13480;-46
2022/08/26 01:37:35;;;;;;;;;29.33;27.67;;;;;22.65;85.21;100922.17;111040;1258;13251;-48
2022/08/26 01:40:02;;;;;;;;;54.50;44.00;;;;;22.63;85.40;100920.52;110960;1257;14987;-48
2022/08/26 01:42:30;;;;;;;;;44.67;38.67;;;;;22.72;85.19;100918.83;111060;1257;14986;-47
2022/08/26 01:44:57;;;;;;;;;40.33;37.00;;;;;22.87;84.51;100918.73;110963;1257;14194;-48
2022/08/26 01:47:24;;;;;;;;;39.00;35.67;;;;;22.90;84.03;100915.54;111009;1258;14510;-49
2022/08/26 01:49:52;;;;;;;;;36.67;33.67;;;;;22.85;83.98;100917.58;111040;1257;13210;-47
2022/08/26 01:52:20;;;;;;;;;45.00;37.00;;;;;22.73;84.15;100920.50;111019;1258;15320;-48
2022/08/26 01:54:47;;;;;;;;;52.33;43.33;;;;;22.67;84.51;100916.02;111018;1258;15712;-48
2022/08/26 01:57:14;;;;;;;;;46.33;39.67;;;;;22.58;84.72;100915.69;111009;1257;16760;-46
2022/08/26 01:59:42;;;;;;;;;44.00;38.67;;;;;22.50;85.07;100919.65;111011;1259;15260;-48
2022/08/26 02:02:09;;;;;;;;;44.67;35.33;;;;;22.51;85.02;100915.30;111008;1259;15239;-44
2022/08/26 02:04:37;;;;;;;;;37.33;34.67;;;;;22.47;85.02;100917.83;111075;1257;13206;-48
2022/08/26 02:07:04;;;;;;;;;38.67;34.67;;;;;22.49;84.94;100917.13;111001;1257;15447;-51
2022/08/26 02:09:31;;;;;;;;;38.00;34.00;;;;;22.53;84.66;100917.23;111026;1258;15075;-47
2022/08/26 02:11:59;;;;;;;;;39.00;33.00;;;;;22.49;84.44;100919.55;111036;1258;14966;-46
2022/08/26 02:14:26;;;;;;;;;33.50;30.00;;;;;22.42;84.51;100920.95;110996;1259;13361;-49
2022/08/26 02:16:54;;;;;;;;;38.00;33.00;;;;;22.40;84.58;100919.21;110950;1258;13288;-49
2022/08/26 02:19:21;;;;;;;;;33.33;31.00;;;;;22.43;84.17;100918.95;110970;1257;15498;-43
2022/08/26 02:21:48;;;;;;;;;36.67;31.00;;;;;22.36;84.17;100915.46;111013;1259;14711;-49
2022/08/26 02:24:16;;;;;;;;;33.67;30.67;;;;;22.34;84.30;100909.88;110893;1258;15833;-46
2022/08/26 02:26:43;;;;;;;;;40.00;33.33;;;;;22.46;83.86;100910.16;111016;1258;15992;-48
2022/08/26 02:29:11;;;;;;;;;37.00;34.00;;;;;22.34;83.69;100913.54;111025;1258;14838;-49
2022/08/26 02:31:38;;;;;;;;;34.67;33.00;;;;;22.34;83.86;100908.55;111071;1257;13219;-48
2022/08/26 02:34:06;;;;;;;;;32.67;30.00;;;;;22.31;83.38;100909.86;111029;1258;15251;-47
2022/08/26 02:36:33;;;;;;;;;34.00;29.00;;;;;22.20;83.47;100910.98;111022;1258;14982;-47
2022/08/26 02:39:01;;;;;;;;;32.33;29.67;;;;;22.29;83.41;100906.06;111036;1258;14807;-48
2022/08/26 02:41:28;;;;;;;;;35.33;34.00;;;;;22.40;82.50;100910.27;110928;1259;15631;-49
2022/08/26 02:43:55;;;;;;;;;35.33;34.00;;;;;22.16;82.82;100908.05;111059;1258;13319;-49
2022/08/26 02:46:23;;;;;;;;;33.00;29.00;;;;;22.08;83.22;100908.59;111017;1258;15159;-48
2022/08/26 02:48:50;;;;;;;;;34.67;33.00;;;;;22.06;83.39;100910.98;111027;1258;15351;-47
2022/08/26 02:51:18;;;;;;;;;34.33;31.67;;;;;22.08;83.13;100907.33;111022;1257;14984;-47
2022/08/26 02:53:45;;;;;;;;;33.67;28.67;;;;;22.05;83.08;100907.27;111026;1258;13118;-49
2022/08/26 02:56:12;;;;;;;;;35.00;32.67;;;;;21.96;83.27;100906.73;111019;1258;15318;-47
2022/08/26 02:58:40;;;;;;;;;32.67;28.00;;;;;21.96;83.33;100908.90;111042;1258;13173;-48
2022/08/26 03:01:07;;;;;;;;;28.33;27.00;;;;;21.97;83.15;100909.85;111050;1258;15379;-48
2022/08/26 03:03:34;;;;;;;;;33.67;29.00;;;;;22.02;82.77;100908.55;110986;1258;14740;-49
2022/08/26 03:06:01;;;;;;;;;28.67;28.33;;;;;21.95;82.80;100905.23;111020;1258;14618;-42
2022/08/26 03:08:29;;;;;;;;;36.00;31.33;;;;;21.93;82.94;100904.52;110875;1258;15147;-49
2022/08/26 03:10:56;;;;;;;;;31.00;29.00;;;;;21.85;82.97;100903.58;111068;1258;13219;-49
2022/08/26 03:13:24;;;;;;;;;35.00;31.00;;;;;21.85;83.13;100902.39;111102;1257;13773;-47
2022/08/26 03:15:51;;;;;;;;;41.67;37.00;;;;;21.80;83.22;100908.05;111010;1258;15089;-48
2022/08/26 03:18:18;;;;;;;;;39.67;36.00;;;;;21.80;83.21;100900.91;110996;1258;13221;-46
2022/08/26 03:20:46;;;;;;;;;32.33;31.00;;;;;21.81;83.00;100900.96;110954;1257;14028;-47
2022/08/26 03:23:13;;;;;;;;;35.33;33.67;;;;;21.79;83.05;100902.40;111003;1258;13597;-45
2022/08/26 03:25:41;;;;;;;;;36.00;32.00;;;;;22.05;82.51;100898.58;111081;1258;10856;-48
2022/08/26 03:28:08;;;;;;;;;34.67;31.67;;;;;22.07;81.85;100897.05;111059;1258;14610;-48
2022/08/26 03:30:43;;;;;;;;;31.50;28.50;;;;;21.97;81.96;100894.36;111035;1258;14323;-48
2022/08/26 03:33:11;;;;;;;;;35.00;32.33;;;;;22.05;81.75;100898.16;111014;1257;13082;-46
2022/08/26 03:35:38;;;;;;;;;34.67;33.67;;;;;21.90;81.89;100893.80;111018;1258;14227;-47
2022/08/26 03:38:07;;;;;;;;;33.33;31.67;;;;;22.06;81.78;100896.77;111053;1258;14678;-46
2022/08/26 03:40:34;;;;;;;;;35.50;28.50;;;;;22.26;80.83;100895.00;111083;1257;13326;-50
2022/08/26 03:43:02;;;;;;;;;29.67;29.33;;;;;22.19;80.45;100894.20;111009;1258;14453;-48
2022/08/26 03:45:29;;;;;;;;;32.00;30.50;;;;;22.02;80.79;100893.31;111050;1257;15079;-47
2022/08/26 03:47:57;;;;;;;;;29.00;28.00;;;;;21.96;81.02;100893.32;110990;1258;19276;-47
2022/08/26 03:50:24;;;;;;;;;29.33;29.33;;;;;21.85;81.39;100891.95;111034;1258;14828;-48
2022/08/26 03:52:52;;;;;;;;;31.00;30.67;;;;;21.75;81.70;100890.05;111062;1258;13076;-50
2022/08/26 03:55:19;;;;;;;;;32.00;29.00;;;;;21.67;82.10;100889.47;111041;1258;15099;-48
2022/08/26 03:57:46;;;;;;;;;27.00;25.33;;;;;21.72;82.28;100893.02;111024;1258;14990;-48
2022/08/26 04:00:14;;;;;;;;;28.00;25.50;;;;;21.66;82.19;100892.38;111013;1258;14859;-48
2022/08/26 04:02:42;;;;;;;;;29.00;28.00;;;;;21.42;83.06;100896.86;111019;1258;14622;-47
2022/08/26 04:05:10;;;;;;;;;30.00;26.00;;;;;21.58;83.14;100900.27;111045;1257;15305;-47
2022/08/26 04:07:38;;;;;;;;;29.00;29.00;;;;;21.69;82.53;100899.69;111072;1258;18120;-47
2022/08/26 04:10:05;;;;;;;;;30.50;29.50;;;;;21.63;82.50;100896.27;111025;1258;14350;-47
2022/08/26 04:12:32;;;;;;;;;32.00;30.67;;;;;21.65;82.54;100900.36;111024;1258;13388;-47
2022/08/26 04:15:00;;;;;;;;;34.33;28.00;;;;;21.73;82.27;100894.02;111013;1258;14749;-48
2022/08/26 04:17:28;;;;;;;;;32.00;29.00;;;;;21.62;82.43;100897.30;111032;1257;14534;-46
2022/08/26 04:19:56;;;;;;;;;42.50;36.50;;;;;21.63;82.39;100901.45;111071;1258;11214;-47
2022/08/26 04:22:23;;;;;;;;;36.00;34.67;;;;;21.52;82.54;100898.73;111043;1258;14653;-48
2022/08/26 04:24:50;;;;;;;;;38.33;34.00;;;;;21.63;82.59;100897.46;111032;1257;15095;-47
2022/08/26 04:27:18;;;;;;;;;33.33;30.33;;;;;21.82;81.85;100897.84;111008;1258;15037;-46
2022/08/26 04:29:45;;;;;;;;;31.67;28.67;;;;;21.92;81.06;100903.54;111039;1259;15052;-47
2022/08/26 04:32:12;;;;;;;;;31.00;29.00;;;;;21.68;81.34;100908.05;111029;1257;14583;-47
2022/08/26 04:34:40;;;;;;;;;29.67;27.67;;;;;21.48;82.28;100903.83;111012;1258;13196;-47
2022/08/26 04:37:07;;;;;;;;;33.50;32.50;;;;;21.52;82.73;100901.35;111010;1258;13748;-47
2022/08/26 04:39:35;;;;;;;;;45.50;39.50;;;;;21.73;82.26;100893.94;111023;1258;14800;-47
2022/08/26 04:42:02;;;;;;;;;36.00;32.00;;;;;21.85;81.72;100890.73;111028;1258;15352;-51
2022/08/26 04:44:29;;;;;;;;;32.33;31.00;;;;;21.88;81.46;100894.42;110936;1257;15654;-46
2022/08/26 04:46:57;;;;;;;;;33.67;31.33;;;;;21.85;81.42;100895.98;111052;1258;13101;-46
2022/08/26 04:49:24;;;;;;;;;33.33;31.00;;;;;21.82;81.55;100900.94;111014;1258;14083;-46
2022/08/26 04:51:51;;;;;;;;;36.00;32.67;;;;;21.89;81.39;100900.08;111004;1257;13092;-48
2022/08/26 04:54:19;;;;;;;;;48.00;41.00;;;;;21.94;81.22;100896.48;110966;1258;14799;-49
2022/08/26 04:56:48;;;;;;;;;49.50;41.00;;;;;21.89;81.47;100896.80;111021;1258;15346;-48
2022/08/26 04:59:16;;;;;;;;;42.00;38.33;;;;;21.73;81.96;100897.96;111016;1257;14683;-47
2022/08/26 05:01:43;;;;;;;;;40.67;35.67;;;;;21.62;82.70;100896.48;110988;1258;13221;-48
2022/08/26 05:04:11;;;;;;;;;47.00;41.33;;;;;21.77;82.83;100895.72;110965;1258;13848;-46
2022/08/26 05:06:38;;;;;;;;;44.67;40.00;;;;;21.88;82.39;100895.35;110915;1259;14469;-47
2022/08/26 05:09:05;;;;;;;;;35.33;33.67;;;;;21.86;82.41;100897.13;110973;1257;14327;-48
2022/08/26 05:11:33;;;;;;;;;39.00;37.00;;;;;21.99;82.23;100894.35;111055;1258;13536;-49
2022/08/26 05:14:00;;;;;;;;;39.67;35.00;;;;;22.36;81.10;100896.94;111067;1257;13109;-48
2022/08/26 05:16:29;;;;;;;;;31.33;30.00;;;;;22.40;80.54;100901.30;110256;1257;971733;-47
2022/08/26 05:18:56;;;;;;;;;35.67;32.33;;;;;22.46;80.53;100899.34;111129;1258;14368;-47
2022/08/26 05:21:23;;;;;;;;;46.33;41.33;;;;;22.47;80.45;100899.36;111030;1257;14477;-47
2022/08/26 05:23:51;;;;;;;;;44.67;38.00;;;;;22.56;80.13;100893.95;110979;1258;14327;-47
2022/08/26 05:26:19;;;;;;;;;43.00;38.00;;;;;22.62;79.91;100897.88;111019;1258;14268;-48
2022/08/26 05:28:46;;;;;;;;;36.33;34.00;;;;;22.75;79.43;100895.98;111030;1257;13143;-45
2022/08/26 05:31:13;;;;;;;;;32.33;30.33;;;;;22.86;79.04;100902.33;110891;1259;13244;-48
2022/08/26 05:33:41;;;;;;;;;38.50;34.00;;;;;22.88;78.75;100907.39;110934;1257;13624;-44
2022/08/26 05:36:08;;;;;;;;;30.67;30.00;;;;;22.88;78.69;100908.86;111004;1258;13658;-47
2022/08/26 05:38:36;;;;;;;;;31.33;29.67;;;;;22.89;78.61;100909.74;110914;1258;13262;-46
2022/08/26 05:41:03;;;;;;;;;35.00;31.00;;;;;22.95;78.29;100915.29;110963;1258;13220;-48
2022/08/26 05:43:31;;;;;;;;;31.00;29.33;;;;;23.06;78.02;100919.88;110990;1258;13122;-48
2022/08/26 05:45:58;;;;;;;;;34.00;31.00;;;;;23.01;78.00;100923.61;110969;1258;14144;-47
2022/08/26 05:48:25;;;;;;;;;29.33;27.67;;;;;22.77;78.36;100926.57;110991;1257;14805;-47
2022/08/26 05:50:53;;;;;;;;;31.67;29.00;;;;;22.87;78.31;100929.88;110998;1258;14499;-47
2022/08/26 05:53:20;;;;;;;;;29.33;29.00;;;;;23.05;77.43;100926.79;111023;1258;14638;-47
2022/08/26 05:55:48;;;;;;;;;31.00;28.67;;;;;23.15;76.82;100929.04;111013;1257;13235;-47
2022/08/26 05:58:15;;;;;;;;;28.67;28.33;;;;;23.19;75.50;100928.23;110877;1258;14156;-47
2022/08/26 06:00:43;;;;;;;;;28.33;26.00;;;;;23.27;74.59;100925.59;110967;1257;13212;-46
2022/08/26 06:03:11;;;;;;;;;29.00;28.00;;;;;23.24;74.41;100924.42;110882;1258;14896;-50
2022/08/26 06:05:38;;;;;;;;;27.50;26.00;;;;;23.41;73.40;100921.79;110864;1257;13509;-47
2022/08/26 06:08:13;;;;;;;;;26.67;25.67;;;;;23.34;71.19;100925.64;110797;1258;13528;-48
2022/08/26 06:10:41;;;;;;;;;25.67;23.33;;;;;23.20;68.80;100929.83;110940;1257;13188;-48
2022/08/26 06:13:09;;;;;;;;;23.67;21.00;;;;;23.18;68.23;100926.98;110923;1257;14411;-46
2022/08/26 06:15:37;;;;;;;;;25.67;24.00;;;;;23.49;67.53;100921.01;110864;1259;14448;-48
2022/08/26 06:18:05;;;;;;;;;26.67;24.33;;;;;23.44;66.02;100920.27;110967;1258;13170;-47
2022/08/26 06:20:32;;;;;;;;;27.67;26.33;;;;;23.20;66.05;100923.88;110858;1257;14936;-47
2022/08/26 06:25:44;;;;;;;;;27.33;24.00;;;;;23.50;65.73;100917.64;110896;1258;13170;-47
2022/08/26 06:28:14;;;;;;;;;23.33;22.67;;;;;23.47;65.72;100914.97;110943;1258;15525;-48
2022/08/26 06:30:41;;;;;;;;;25.67;25.00;;;;;23.76;65.41;100914.47;111026;1258;13270;-47
2022/08/26 06:33:09;;;;;;;;;24.00;24.00;;;;;23.80;64.75;100909.25;110997;1257;13932;-48
2022/08/26 06:35:36;;;;;;;;;25.67;25.67;;;;;23.91;64.55;100907.17;111059;1258;14870;-48
2022/08/26 06:38:03;;;;;;;;;23.33;22.67;;;;;23.91;63.89;100907.70;111038;1258;13153;-51
2022/08/26 06:40:31;;;;;;;;;21.67;18.67;;;;;24.04;63.58;100906.36;111018;1258;13262;-47
2022/08/26 06:42:59;;;;;;;;;21.33;20.00;;;;;24.12;62.81;100906.70;111030;1258;14639;-47
2022/08/26 06:45:26;;;;;;;;;24.00;22.67;;;;;24.07;62.65;100907.66;110813;1258;14890;-51
2022/08/26 06:47:54;;;;;;;;;24.00;22.67;;;;;24.13;62.40;100909.10;111005;1258;13653;-46
2022/08/26 06:50:21;;;;;;;;;25.67;23.00;;;;;24.39;62.02;100912.41;110814;1259;15112;-48
2022/08/26 06:52:48;;;;;;;;;24.00;23.33;;;;;24.50;61.88;100913.29;111034;1257;13076;-49
2022/08/26 06:55:16;;;;;;;;;25.00;24.00;;;;;24.58;61.41;100913.90;111012;1258;14817;-47
2022/08/26 06:57:43;;;;;;;;;23.00;20.33;;;;;24.55;61.54;100910.27;111002;1257;14800;-46
2022/08/26 07:00:11;;;;;;;;;24.33;23.67;;;;;24.78;61.51;100909.70;110975;1258;13323;-47
2022/08/26 07:02:38;;;;;;;;;23.67;23.33;;;;;24.91;61.12;100908.16;110981;1258;14433;-47
2022/08/26 07:05:05;;;;;;;;;25.67;24.67;;;;;25.00;60.56;100905.94;110956;1258;13189;-49
2022/08/26 07:07:33;;;;;;;;;26.33;23.00;;;;;25.17;60.44;100902.64;110997;1258;13283;-47
2022/08/26 07:10:00;;;;;;;;;25.00;23.33;;;;;25.19;60.03;100900.64;110777;1258;14676;-47
2022/08/26 07:12:28;;;;;;;;;24.00;23.33;;;;;25.17;60.00;100896.62;110972;1257;14301;-48
2022/08/26 07:14:55;;;;;;;;;23.67;22.33;;;;;25.10;60.04;100900.38;110884;1257;14535;-49
2022/08/26 07:17:22;;;;;;;;;24.33;21.67;;;;;25.18;59.82;100899.13;110952;1258;14486;-47
2022/08/26 07:19:50;;;;;;;;;20.67;20.00;;;;;25.06;59.55;100902.03;110820;1257;13119;-47
2022/08/26 07:22:17;;;;;;;;;19.00;18.00;;;;;25.09;59.18;100904.01;110665;1259;14343;-47
2022/08/26 07:24:45;;;;;;;;;19.00;18.33;;;;;25.22;58.31;100900.79;110706;1257;17751;-47
2022/08/26 07:27:12;;;;;;;;;21.33;20.00;;;;;25.32;57.38;100905.36;110845;1258;13242;-48
2022/08/26 07:29:41;;;;;;;;;22.00;20.67;;;;;25.19;57.37;100903.39;111027;1258;15100;-46
2022/08/26 07:32:08;;;;;;;;;24.33;21.67;;;;;25.20;57.58;100905.16;110844;1259;15281;-48
2022/08/26 07:34:36;;;;;;;;;20.00;17.00;;;;;25.47;56.70;100905.34;111043;1258;13109;-46
2022/08/26 07:37:03;;;;;;;;;19.00;19.00;;;;;25.48;56.18;100898.16;111018;1258;14791;-47
2022/08/26 07:39:31;;;;;;;;;22.00;21.33;;;;;25.76;56.47;100905.55;110989;1258;14441;-47
2022/08/26 07:41:58;;;;;;;;;20.67;18.33;;;;;25.73;55.83;100905.20;110951;1258;14978;-48
2022/08/26 07:44:26;;;;;;;;;21.00;20.00;;;;;25.77;55.66;100903.33;110967;1258;14839;-49
2022/08/26 07:46:53;;;;;;;;;20.50;18.50;;;;;25.70;55.79;100899.74;110881;1258;13150;-48
2022/08/26 07:49:21;;;;;;;;;20.00;19.00;;;;;25.66;55.09;100902.27;110922;1258;13197;-52
2022/08/26 07:51:49;;;;;;;;;19.33;19.33;;;;;25.62;55.29;100902.96;110789;1257;13113;-46
2022/08/26 07:54:16;;;;;;;;;18.67;18.67;;;;;25.74;55.19;100896.84;110911;1258;15111;-47
2022/08/26 07:56:44;;;;;;;;;22.00;20.00;;;;;25.68;55.32;100898.70;111008;1257;15078;-47
2022/08/26 07:59:12;;;;;;;;;21.00;20.00;;;;;25.63;55.00;100898.31;110978;1257;14827;-48
2022/08/26 08:01:39;;;;;;;;;19.33;18.67;;;;;25.69;55.17;100897.52;111018;1258;13188;-47
2022/08/26 08:04:06;;;;;;;;;21.33;20.00;;;;;25.83;55.30;100890.71;110879;1257;15368;-45
2022/08/26 08:06:34;;;;;;;;;23.33;21.67;;;;;26.03;55.05;100894.40;110928;1258;13751;-48
2022/08/26 08:09:01;;;;;;;;;26.33;21.67;;;;;25.99;54.84;100897.70;110967;1258;14947;-49
2022/08/26 08:11:29;;;;;;;;;27.67;26.67;;;;;25.91;54.53;100898.64;110964;1258;15045;-48
2022/08/26 08:13:59;;;;;;;;;26.33;25.67;;;;;25.78;54.73;100897.05;110846;1258;13217;-48
2022/08/26 08:16:27;;;;;;;;;33.33;32.00;;;;;25.92;54.43;100900.29;110901;1258;14537;-47
2022/08/26 08:18:54;;;;;;;;;33.00;31.00;;;;;26.09;53.75;100896.11;110851;1257;14245;-47
2022/08/26 08:21:22;;;;;;;;;32.67;31.00;;;;;26.05;54.13;100896.64;110939;1258;14202;-48
2022/08/26 08:23:50;;;;;;;;;34.00;31.00;;;;;26.21;54.14;100895.02;110970;1258;14779;-47
2022/08/26 08:26:17;;;;;;;;;34.00;32.33;;;;;26.29;53.03;100894.70;110962;1257;14774;-46
2022/08/26 08:28:45;;;;;;;;;35.67;33.67;;;;;26.38;52.60;100893.77;110879;1258;14083;-48
2022/08/26 08:31:12;;;;;;;;;37.50;33.00;;;;;26.37;52.61;100892.73;110948;1257;14785;-47
2022/08/26 08:33:40;;;;;;;;;35.33;33.67;;;;;26.07;53.24;100889.00;110874;1258;13373;-46
2022/08/26 08:36:08;;;;;;;;;29.00;28.33;;;;;25.97;53.54;100887.75;110831;1258;15024;-46
2022/08/26 08:38:35;;;;;;;;;32.67;30.33;;;;;26.03;53.10;100889.77;110932;1258;14289;-47
2022/08/26 08:41:03;;;;;;;;;30.33;29.00;;;;;26.19;52.45;100887.11;110945;1258;13218;-48
2022/08/26 08:43:30;;;;;;;;;27.33;27.00;;;;;26.22;52.44;100884.30;110866;1258;15192;-49
2022/08/26 08:45:58;;;;;;;;;29.50;29.00;;;;;26.16;52.68;100885.44;110950;1257;13732;-47
2022/08/26 08:48:26;;;;;;;;;23.00;22.00;;;;;26.13;52.09;100887.15;110954;1258;15738;-49
2022/08/26 08:50:53;;;;;;;;;25.33;24.00;;;;;26.29;49.78;100886.84;110986;1257;14452;-47
2022/08/26 08:53:21;;;;;;;;;23.00;21.00;;;;;26.21;49.79;100878.59;110971;1258;14320;-48
2022/08/26 08:55:49;;;;;;;;;22.00;22.00;;;;;26.01;50.60;100877.66;110953;1258;13275;-53
2022/08/26 08:58:16;;;;;;;;;22.67;21.67;;;;;26.09;50.73;100876.11;110908;1257;14761;-46
2022/08/26 09:00:44;;;;;;;;;22.00;22.00;;;;;26.04;51.05;100873.30;110872;1258;14702;-49
2022/08/26 09:03:12;;;;;;;;;22.00;21.00;;;;;26.03;51.52;100876.95;110901;1258;14311;-48
2022/08/26 09:05:40;;;;;;;;;20.67;20.67;;;;;25.94;52.43;100873.82;110979;1258;15121;-47
2022/08/26 09:08:08;;;;;;;;;21.67;20.67;;;;;25.97;52.44;100877.83;110998;1258;13353;-47
2022/08/26 09:10:35;;;;;;;;;17.33;17.00;;;;;26.00;52.02;100875.77;110884;1258;13236;-47
2022/08/26 09:13:02;;;;;;;;;22.00;21.50;;;;;25.94;52.31;100875.30;110974;1258;16765;-49
2022/08/26 09:15:30;;;;;;;;;18.67;17.67;;;;;25.94;52.13;100875.53;110875;1257;14881;-48
2022/08/26 09:17:58;;;;;;;;;18.00;17.00;;;;;25.92;52.18;100872.63;110916;1257;14883;-47
2022/08/26 09:20:26;;;;;;;;;20.00;18.00;;;;;25.88;52.41;100873.17;110863;1258;15025;-48
2022/08/26 09:22:53;;;;;;;;;22.00;19.67;;;;;25.95;52.36;100871.91;110927;1257;13203;-49
2022/08/26 09:25:21;;;;;;;;;19.00;17.67;;;;;25.97;52.13;100873.01;110923;1258;13905;-48
2022/08/26 09:27:48;;;;;;;;;19.67;17.00;;;;;25.91;52.38;100871.93;110895;1258;15172;-50
2022/08/26 09:30:15;;;;;;;;;17.33;16.00;;;;;25.84;52.48;100872.73;110847;1258;15016;-48
2022/08/26 09:32:44;;;;;;;;;18.00;17.00;;;;;25.84;52.43;100868.59;110939;1258;15001;-47
2022/08/26 09:35:11;;;;;;;;;16.33;16.00;;;;;25.84;52.29;100865.42;110969;1257;14369;-50
2022/08/26 09:37:39;;;;;;;;;18.67;17.33;;;;;25.89;52.19;100866.65;111042;1258;10782;-48
2022/08/26 09:40:06;;;;;;;;;21.67;21.00;;;;;25.99;51.55;100860.52;110968;1258;15531;-47
2022/08/26 09:42:33;;;;;;;;;21.00;19.33;;;;;26.14;50.46;100858.78;110984;1257;15179;-47
2022/08/26 09:45:02;;;;;;;;;19.67;18.67;;;;;26.14;50.43;100859.89;110914;1258;14968;-47
2022/08/26 09:47:30;;;;;;;;;23.67;21.67;;;;;26.10;49.96;100857.36;110914;1258;14205;-49
2022/08/26 09:49:57;;;;;;;;;21.00;20.67;;;;;26.09;49.74;100856.21;110989;1258;14299;-47
2022/08/26 09:52:26;;;;;;;;;24.00;23.33;;;;;26.09;49.74;100860.06;110929;1258;14855;-48
2022/08/26 09:54:54;;;;;;;;;23.33;22.33;;;;;26.07;49.52;100856.63;111033;1257;14463;-49
2022/08/26 09:57:21;;;;;;;;;25.00;25.00;;;;;26.04;49.32;100853.91;110991;1258;14702;-48
2022/08/26 09:59:49;;;;;;;;;27.33;27.33;;;;;26.07;49.30;100853.30;111000;1258;13914;-46
2022/08/26 10:02:17;;;;;;;;;31.00;30.00;;;;;26.00;49.48;100845.92;111033;1257;14347;-46
2022/08/26 10:04:44;;;;;;;;;29.00;28.00;;;;;25.94;49.62;100848.67;110831;1258;13239;-50
2022/08/26 10:07:12;;;;;;;;;25.00;23.33;;;;;25.97;49.20;100845.00;110689;1258;15324;-48
2022/08/26 10:09:39;;;;;;;;;25.67;24.00;;;;;26.04;48.70;100842.35;110774;1259;14190;-46
2022/08/26 10:12:07;;;;;;;;;27.67;26.67;;;;;26.14;48.21;100847.05;110779;1258;14217;-46
2022/08/26 10:14:34;;;;;;;;;28.00;27.00;;;;;26.20;47.44;100843.38;110644;1259;13704;-46
2022/08/26 10:17:01;;;;;;;;;26.67;26.67;;;;;26.17;47.44;100837.70;110643;1260;13180;-46
2022/08/26 10:19:29;;;;;;;;;25.50;25.00;;;;;26.07;47.68;100833.56;110578;1259;13721;-46
2022/08/26 10:21:56;;;;;;;;;27.67;26.33;;;;;26.06;47.60;100838.33;110569;1260;15098;-49
2022/08/26 10:24:23;;;;;;;;;26.33;24.00;;;;;26.14;47.42;100835.38;110776;1258;14641;-49
2022/08/26 10:26:52;;;;;;;;;25.00;23.33;;;;;26.19;47.11;100836.02;110739;1258;13323;-47
2022/08/26 10:29:19;;;;;;;;;24.50;23.00;;;;;26.12;47.26;100836.52;110739;1257;15447;-47
2022/08/26 10:31:47;;;;;;;;;23.67;22.33;;;;;26.11;47.37;100831.36;110701;1259;13189;-47
2022/08/26 10:34:15;;;;;;;;;23.00;22.67;;;;;26.08;47.52;100834.95;110651;1259;15198;-47
2022/08/26 10:36:51;;;;;;;;;24.33;24.33;;;;;26.04;47.79;100829.05;110594;1260;15744;-48
2022/08/26 10:39:18;;;;;;;;;23.00;22.67;;;;;26.08;47.71;100831.41;110612;1261;15081;-48
2022/08/26 10:41:46;;;;;;;;;20.67;20.00;;;;;26.06;47.88;100831.91;110643;1259;15179;-48
2022/08/26 10:44:13;;;;;;;;;23.67;23.00;;;;;26.09;47.88;100831.86;110639;1261;13253;-51
2022/08/26 10:46:41;;;;;;;;;21.67;21.67;;;;;26.05;48.16;100832.03;111254;1261;13268;-48
2022/08/26 10:49:08;;;;;;;;;19.00;19.00;;;;;26.02;47.98;100831.90;110794;1258;15538;-45
2022/08/26 10:51:37;;;;;;;;;21.00;19.33;;;;;26.09;47.69;100830.57;110888;1258;15167;-50
2022/08/26 10:54:05;;;;;;;;;24.00;21.50;;;;;26.09;47.42;100830.61;110719;1259;14514;-50
2022/08/26 10:56:32;;;;;;;;;22.00;20.00;;;;;26.01;47.18;100831.99;110657;1260;15080;-47
2022/08/26 10:59:00;;;;;;;;;26.00;23.67;;;;;26.02;46.88;100832.20;110715;1261;13209;-47
2022/08/26 11:01:44;;;;;;;;;21.00;19.67;;;;;26.03;46.65;100830.34;110671;1258;15870;-47
2022/08/26 11:04:11;;;;;;;;;28.00;24.67;;;;;25.98;46.57;100826.23;110855;1258;15721;-47
2022/08/26 11:06:39;;;;;;;;;22.00;21.33;;;;;25.99;46.55;100826.08;111022;1258;15424;-47